createdAt,value
2023-06-19T00:00:47.767Z,0.045
2023-06-19T00:01:48.658Z,0.045
2023-06-19T00:02:48.423Z,0.045
2023-06-19T00:04:47.800Z,0.045
2023-06-19T00:05:48.203Z,0.045
2023-06-19T00:06:47.680Z,0.036
2023-06-19T00:07:48.107Z,0.036
2023-06-19T00:09:47.882Z,0.036
2023-06-19T00:10:48.354Z,0.036
2023-06-19T00:11:47.716Z,0.045
2023-06-19T00:12:48.221Z,0.045
2023-06-19T00:13:47.618Z,0.045
2023-06-19T00:14:48.096Z,0.045
2023-06-19T00:15:47.594Z,0.054
2023-06-19T00:16:48.498Z,0.054
2023-06-19T00:17:48.226Z,0.062
2023-06-19T00:18:47.656Z,0.062
2023-06-19T00:19:48.165Z,0.062
2023-06-19T00:20:47.562Z,0.062
2023-06-19T00:21:48.010Z,0.062
2023-06-19T00:24:49.192Z,0.062
2023-06-19T00:25:47.644Z,0.062
2023-06-19T00:26:48.037Z,0.062
2023-06-19T00:27:47.484Z,0.062
2023-06-19T00:28:47.880Z,0.062
2023-06-19T00:29:48.275Z,0.062
2023-06-19T00:30:47.669Z,0.062
2023-06-19T00:31:48.148Z,0.054
2023-06-19T00:32:48.058Z,0.054
2023-06-19T00:33:47.565Z,0.054
2023-06-19T00:34:48.079Z,0.054
2023-06-19T00:35:47.516Z,0.045
2023-06-19T00:36:48.361Z,0.045
2023-06-19T00:37:47.847Z,0.045
2023-06-19T00:38:48.275Z,0.045
2023-06-19T00:39:51.334Z,0.045
2023-06-19T00:40:47.700Z,0.045
2023-06-19T00:41:48.104Z,0.045
2023-06-19T00:42:47.530Z,0.045
2023-06-19T00:43:47.908Z,0.045
2023-06-19T00:44:48.378Z,0.045
2023-06-19T00:46:48.555Z,0.054
2023-06-19T00:47:48.246Z,0.054
2023-06-19T00:48:47.687Z,0.054
2023-06-19T00:49:48.139Z,0.054
2023-06-19T00:51:48.132Z,0.054
2023-06-19T00:52:47.566Z,0.054
2023-06-19T00:53:47.946Z,0.062
2023-06-19T00:54:48.355Z,0.062
2023-06-19T00:56:48.223Z,0.062
2023-06-19T00:57:47.689Z,0.062
2023-06-19T00:58:48.108Z,0.054
2023-06-19T00:59:47.589Z,0.054
2023-06-19T01:01:47.837Z,0.054
2023-06-19T01:02:49.443Z,0.054
2023-06-19T01:03:49.193Z,0.045
2023-06-19T01:04:48.130Z,0.045
2023-06-19T01:05:47.511Z,0.045
2023-06-19T01:06:47.889Z,0.036
2023-06-19T01:07:48.465Z,0.036
2023-06-19T01:08:47.932Z,0.036
2023-06-19T01:09:48.349Z,0.036
2023-06-19T01:10:47.708Z,0.036
2023-06-19T01:11:48.156Z,0.036
2023-06-19T01:12:47.580Z,0.036
2023-06-19T01:13:48.051Z,0.036
2023-06-19T01:14:47.593Z,0.036
2023-06-19T01:15:48.215Z,0.036
2023-06-19T01:16:48.161Z,0.036
2023-06-19T01:19:47.872Z,0.036
2023-06-19T01:20:48.232Z,0.036
2023-06-19T01:21:47.688Z,0.036
2023-06-19T01:22:48.226Z,0.036
2023-06-19T01:23:47.827Z,0.036
2023-06-19T01:24:48.819Z,0.036
2023-06-19T01:25:48.361Z,0.036
2023-06-19T01:26:47.735Z,0.036
2023-06-19T01:27:48.288Z,0.036
2023-06-19T01:28:47.668Z,0.036
2023-06-19T01:29:48.119Z,0.036
2023-06-19T01:30:47.609Z,0.036
2023-06-19T01:31:48.122Z,0.036
2023-06-19T01:32:47.813Z,0.036
2023-06-19T01:33:48.256Z,0.036
2023-06-19T01:34:50.713Z,0.036
2023-06-19T01:35:48.119Z,0.036
2023-06-19T01:36:47.580Z,0.036
2023-06-19T01:37:48.395Z,0.036
2023-06-19T01:38:47.783Z,0.036
2023-06-19T01:39:48.180Z,0.036
2023-06-19T01:40:47.572Z,0.045
2023-06-19T01:41:47.986Z,0.045
2023-06-19T01:42:47.410Z,0.045
2023-06-19T01:43:47.831Z,0.045
2023-06-19T01:44:48.282Z,0.054
2023-06-19T01:45:47.674Z,0.054
2023-06-19T01:46:48.528Z,0.054
2023-06-19T01:47:48.576Z,0.062
2023-06-19T01:48:48.029Z,0.062
2023-06-19T01:49:47.403Z,0.062
2023-06-19T01:50:47.857Z,0.071
2023-06-19T01:51:48.269Z,0.080
2023-06-19T01:52:47.693Z,0.080
2023-06-19T01:53:48.159Z,0.089
2023-06-19T01:54:47.571Z,0.089
2023-06-19T01:55:48.051Z,0.098
2023-06-19T01:56:47.551Z,0.107
2023-06-19T01:57:47.974Z,0.116
2023-06-19T01:58:48.381Z,0.125
2023-06-19T01:59:47.854Z,0.134
2023-06-19T02:00:48.253Z,0.143
2023-06-19T02:01:47.731Z,0.161
2023-06-19T02:02:48.780Z,0.178
2023-06-19T02:03:49.285Z,0.187
2023-06-19T02:04:47.736Z,0.205
2023-06-19T02:05:48.159Z,0.223
2023-06-19T02:06:47.621Z,0.250
2023-06-19T02:07:48.029Z,0.276
2023-06-19T02:08:47.397Z,0.312
2023-06-19T02:09:47.891Z,0.339
2023-06-19T02:10:48.351Z,0.392
2023-06-19T02:11:47.737Z,0.446
2023-06-19T02:12:48.124Z,0.517
2023-06-19T02:13:49.806Z,0.597
2023-06-19T02:14:48.208Z,0.687
2023-06-19T02:15:47.629Z,0.785
2023-06-19T02:16:48.607Z,0.901
2023-06-19T02:17:48.226Z,1.025
2023-06-19T02:18:47.676Z,1.177
2023-06-19T02:19:48.146Z,1.337
2023-06-19T02:20:47.531Z,1.534
2023-06-19T02:21:48.116Z,1.757
2023-06-19T02:22:47.556Z,2.006
2023-06-19T02:23:47.984Z,2.274
2023-06-19T02:24:47.884Z,2.595
2023-06-19T02:25:48.276Z,2.951
2023-06-19T02:26:47.707Z,3.353
2023-06-19T02:27:48.131Z,3.834
2023-06-19T02:28:47.546Z,4.360
2023-06-19T02:29:47.991Z,4.958
2023-06-19T02:30:47.439Z,5.635
2023-06-19T02:31:47.828Z,6.411
2023-06-19T02:32:48.656Z,7.294
2023-06-19T02:33:48.202Z,8.292
2023-06-19T02:34:47.560Z,9.389
2023-06-19T02:35:47.991Z,10.646
2023-06-19T02:36:47.344Z,12.046
2023-06-19T02:37:47.813Z,13.687
2023-06-19T02:38:48.285Z,15.542
2023-06-19T02:39:47.674Z,17.610
2023-06-19T02:40:48.244Z,20.027
2023-06-19T02:41:47.591Z,22.764
2023-06-19T02:42:47.976Z,25.930
2023-06-19T02:43:47.422Z,29.505
2023-06-19T02:44:47.955Z,33.643
2023-06-19T02:45:48.707Z,38.395
2023-06-19T02:46:48.100Z,43.745
2023-06-19T02:47:47.728Z,49.817
2023-06-19T02:48:48.133Z,56.808
2023-06-19T02:49:47.637Z,64.583
2023-06-19T02:50:48.111Z,73.286
2023-06-19T02:51:51.357Z,82.684
2023-06-19T02:52:47.754Z,93.233
2023-06-19T02:53:48.220Z,104.494
2023-06-19T02:54:47.716Z,116.603
2023-06-19T02:55:48.284Z,130.032
2023-06-19T02:56:47.692Z,145.351
2023-06-19T02:57:48.053Z,163.621
2023-06-19T02:58:47.621Z,185.119
2023-06-19T02:59:48.038Z,210.772
2023-06-19T03:00:47.464Z,236.274
2023-06-19T03:01:48.300Z,261.668
2023-06-19T03:02:48.549Z,285.833
2023-06-19T03:03:48.949Z,310.576
2023-06-19T03:04:47.494Z,334.928
2023-06-19T03:05:47.912Z,360.171
2023-06-19T03:06:48.403Z,385.155
2023-06-19T03:07:47.863Z,411.995
2023-06-19T03:08:48.270Z,444.638
2023-06-19T03:09:47.742Z,482.597
2023-06-19T03:10:48.259Z,509.587
2023-06-19T03:11:47.658Z,551.318
2023-06-19T03:12:48.211Z,593.047
2023-06-19T03:13:47.772Z,631.728
2023-06-19T03:14:48.196Z,668.161
2023-06-19T03:15:47.615Z,703.471
2023-06-19T03:16:48.310Z,744.720
2023-06-19T03:17:48.021Z,789.981
2023-06-19T03:19:48.116Z,907.307
2023-06-19T03:20:47.605Z,976.643
2023-06-19T03:21:48.131Z,1041.484
2023-06-19T03:22:47.588Z,1091.721
2023-06-19T03:23:48.011Z,1133.772
2023-06-19T03:24:48.004Z,1175.662
2023-06-19T03:26:47.913Z,1293.469
2023-06-19T03:27:48.357Z,1372.115
2023-06-19T03:28:47.779Z,1447.710
2023-06-19T03:29:48.142Z,1520.095
2023-06-19T03:30:47.914Z,1581.085
2023-06-19T03:31:48.307Z,1632.606
2023-06-19T03:32:48.735Z,1642.718
2023-06-19T03:33:48.359Z,1595.691
2023-06-19T03:34:47.871Z,1572.740
2023-06-19T03:35:49.195Z,1618.803
2023-06-19T03:36:47.597Z,1708.844
2023-06-19T03:37:48.124Z,1818.947
2023-06-19T03:38:47.530Z,1922.630
2023-06-19T03:39:48.012Z,2010.583
2023-06-19T03:40:48.317Z,2099.982
2023-06-19T03:41:47.758Z,2181.998
2023-06-19T03:42:48.227Z,2236.407
2023-06-19T03:44:48.054Z,2338.324
2023-06-19T03:45:47.571Z,2398.512
2023-06-19T03:46:48.410Z,2453.563
2023-06-19T03:47:48.489Z,2495.615
2023-06-19T03:48:47.908Z,2534.135
2023-06-19T03:49:48.354Z,2585.655
2023-06-19T03:50:48.948Z,2662.855
2023-06-19T03:51:47.605Z,2758.995
2023-06-19T03:52:48.066Z,2873.592
2023-06-19T03:53:47.576Z,3004.399
2023-06-19T03:54:48.039Z,3149.812
2023-06-19T03:55:47.476Z,3305.498
2023-06-19T03:56:47.931Z,3478.837
2023-06-19T03:57:48.395Z,3702.414
2023-06-19T03:58:47.826Z,3928.077
2023-06-19T03:59:48.419Z,4119.072
2023-06-19T04:00:47.879Z,4225.163
2023-06-19T04:01:48.691Z,4358.057
2023-06-19T04:02:48.399Z,4579.546
2023-06-19T04:03:49.225Z,4906.164
2023-06-19T04:04:47.702Z,5285.425
2023-06-19T04:05:48.160Z,5522.324
2023-06-19T04:06:47.535Z,5662.601
2023-06-19T04:07:47.966Z,5826.471
2023-06-19T04:08:48.635Z,6036.887
2023-06-19T04:09:48.098Z,6375.702
2023-06-19T04:10:47.569Z,6710.986
2023-06-19T04:11:48.000Z,7029.739
2023-06-19T04:12:47.450Z,7336.616
2023-06-19T04:13:47.887Z,7692.604
2023-06-19T04:14:48.343Z,7978.455
2023-06-19T04:15:50.895Z,8247.613
2023-06-19T04:16:47.768Z,8530.254
2023-06-19T04:17:48.542Z,8669.407
2023-06-19T04:18:47.909Z,8598.467
2023-06-19T04:19:48.320Z,8555.773
2023-06-19T04:20:47.711Z,8640.357
2023-06-19T04:21:48.183Z,8790.745
2023-06-19T04:23:48.123Z,8744.361
2023-06-19T04:24:47.889Z,8610.825
2023-06-19T04:25:48.366Z,8581.774
2023-06-19T04:26:47.769Z,8702.310
2023-06-19T04:27:48.308Z,8945.307
2023-06-19T04:28:47.642Z,9216.873
2023-06-19T04:29:48.139Z,9554.084
2023-06-19T04:31:51.340Z,10319.829
2023-06-19T04:32:49.395Z,10925.877
2023-06-19T04:33:48.508Z,11859.185
2023-06-19T04:34:47.923Z,12752.206
2023-06-19T04:35:47.419Z,13105.307
2023-06-19T04:36:47.870Z,13074.009
2023-06-19T04:37:48.435Z,12725.082
2023-06-19T04:38:47.965Z,12213.408
2023-06-19T04:39:48.478Z,11795.306
2023-06-19T04:40:47.911Z,11659.362
2023-06-19T04:41:48.269Z,11432.094
2023-06-19T04:42:47.793Z,10950.915
2023-06-19T04:43:48.209Z,10525.430
2023-06-19T04:44:47.609Z,10288.371
2023-06-19T04:45:48.121Z,10109.413
2023-06-19T04:46:48.217Z,9878.614
2023-06-19T04:48:02.453Z,9546.540
2023-06-19T04:50:47.815Z,9782.796
2023-06-19T04:51:48.350Z,9603.357
2023-06-19T04:52:48.100Z,9121.857
2023-06-19T04:53:47.480Z,8838.093
2023-06-19T04:54:47.889Z,8912.726
2023-06-19T04:55:48.292Z,9135.499
2023-06-19T04:56:47.743Z,9186.859
2023-06-19T04:57:48.207Z,9172.414
2023-06-19T04:58:47.858Z,9056.373
2023-06-19T04:59:48.331Z,8966.012
2023-06-19T05:00:47.715Z,8839.537
2023-06-19T05:01:48.620Z,8783.844
2023-06-19T05:02:48.355Z,8868.909
2023-06-19T05:03:47.927Z,9095.695
2023-06-19T05:04:49.096Z,9432.425
2023-06-19T05:05:47.548Z,9892.578
2023-06-19T05:06:48.001Z,10367.979
2023-06-19T05:07:47.527Z,10840.170
2023-06-19T05:08:47.957Z,11323.275
2023-06-19T05:09:48.401Z,11865.604
2023-06-19T05:10:47.825Z,12541.310
2023-06-19T05:11:48.348Z,13215.089
2023-06-19T05:12:47.870Z,13814.717
2023-06-19T05:13:48.294Z,14786.223
2023-06-19T05:14:47.774Z,15431.112
2023-06-19T05:15:48.732Z,16062.358
2023-06-19T05:16:53.309Z,17808.438
2023-06-19T05:17:48.345Z,22867.719
2023-06-19T05:18:47.852Z,23369.441
2023-06-19T05:19:48.334Z,21846.297
2023-06-19T05:20:47.698Z,22460.209
2023-06-19T05:21:48.191Z,24226.031
2023-06-19T05:23:48.149Z,25744.361
2023-06-19T05:24:48.215Z,27469.896
2023-06-19T05:25:47.611Z,28636.250
2023-06-19T05:26:48.018Z,31182.100
2023-06-19T05:27:47.427Z,27241.344
2023-06-19T05:28:47.839Z,27567.801
2023-06-19T05:29:48.286Z,22945.240
2023-06-19T05:30:47.731Z,24474.484
2023-06-19T05:31:48.097Z,25028.691
2023-06-19T05:32:47.753Z,22414.467
2023-06-19T05:33:48.460Z,19811.479
2023-06-19T05:34:47.872Z,20519.283
2023-06-19T05:35:48.273Z,21329.326
2023-06-19T05:36:47.993Z,22437.098
2023-06-19T05:37:47.445Z,23000.613
2023-06-19T05:38:47.969Z,22999.490
2023-06-19T05:39:48.515Z,22798.865
2023-06-19T05:41:48.493Z,22580.906
2023-06-19T05:42:48.313Z,22314.797
2023-06-19T05:43:47.712Z,21981.438
2023-06-19T05:44:48.048Z,21681.623
2023-06-19T05:45:47.823Z,21272.830
2023-06-19T05:46:48.445Z,20957.609
2023-06-19T05:47:48.253Z,21049.094
2023-06-19T05:48:47.661Z,21388.391
2023-06-19T05:49:48.164Z,21712.439
2023-06-19T05:50:47.575Z,21973.412
2023-06-19T05:51:48.123Z,22263.275
2023-06-19T05:52:48.015Z,22768.529
2023-06-19T05:54:48.002Z,24276.268
2023-06-19T05:55:47.548Z,24242.723
2023-06-19T05:56:47.931Z,23486.285
2023-06-19T05:57:48.412Z,22756.814
2023-06-19T05:58:47.862Z,22697.268
2023-06-19T05:59:48.311Z,23464.457
2023-06-19T06:00:47.802Z,24375.455
2023-06-19T06:01:48.615Z,25768.115
2023-06-19T06:02:48.227Z,35205.516
2023-06-19T06:03:47.707Z,30553.102
2023-06-19T06:04:48.579Z,24964.170
2023-06-19T06:05:48.198Z,24773.176
2023-06-19T06:06:47.592Z,27844.182
2023-06-19T06:08:48.347Z,23153.891
2023-06-19T06:11:47.705Z,38937.461
2023-06-19T06:12:48.102Z,52075.828
2023-06-19T06:14:48.035Z,55595.434
2023-06-19T06:15:47.541Z,57355.316
2023-06-19T06:16:48.181Z,58634.340
2023-06-19T06:17:47.812Z,61896.184
2023-06-19T06:18:48.332Z,63834.059
2023-06-19T06:19:47.774Z,63179.863
2023-06-19T06:20:48.237Z,61582.086
2023-06-19T06:21:47.575Z,57163.199
2023-06-19T06:22:48.095Z,53139.625
2023-06-19T06:23:47.607Z,52045.816
2023-06-19T06:24:48.635Z,51461.438
2023-06-19T06:25:48.434Z,50726.348
2023-06-19T06:26:47.942Z,47513.137
2023-06-19T06:27:47.489Z,45656.152
2023-06-19T06:28:48.045Z,22266.486
2023-06-19T06:29:47.517Z,20871.260
2023-06-19T06:30:47.995Z,20371.141
2023-06-19T06:31:47.408Z,19866.850
2023-06-19T06:32:48.199Z,19142.996
2023-06-19T06:33:47.637Z,18068.447
2023-06-19T06:34:48.075Z,16806.275
2023-06-19T06:35:47.603Z,15549.079
2023-06-19T06:38:47.622Z,12596.361
2023-06-19T06:39:48.023Z,12046.970
2023-06-19T06:40:47.615Z,11651.337
2023-06-19T06:41:48.109Z,11332.103
2023-06-19T06:42:47.652Z,11117.995
2023-06-19T06:43:48.149Z,11004.040
2023-06-19T06:44:47.540Z,11107.081
2023-06-19T06:45:48.337Z,11356.178
2023-06-19T06:46:47.704Z,11759.354
2023-06-19T06:47:48.452Z,12274.719
2023-06-19T06:48:47.961Z,12829.728
2023-06-19T06:49:48.406Z,13377.675
2023-06-19T06:50:48.006Z,13818.568
2023-06-19T06:51:47.466Z,14182.422
2023-06-19T06:52:47.973Z,14447.889
2023-06-19T06:53:48.463Z,14681.096
2023-06-19T06:54:47.873Z,14978.502
2023-06-19T06:55:48.769Z,15671.701
2023-06-19T06:56:48.177Z,16717.840
2023-06-19T06:57:47.600Z,18034.742
2023-06-19T06:58:48.012Z,19264.654
2023-06-19T06:59:47.445Z,20301.324
2023-06-19T07:00:48.139Z,21120.676
2023-06-19T07:01:47.887Z,21705.217
2023-06-19T07:02:49.158Z,22195.545
2023-06-19T07:05:48.160Z,24135.990
2023-06-19T07:06:47.600Z,25236.859
2023-06-19T07:07:47.955Z,26397.113
2023-06-19T07:08:48.467Z,27468.611
2023-06-19T07:09:47.963Z,28722.920
2023-06-19T07:10:48.638Z,30087.811
2023-06-19T07:11:48.726Z,31795.211
2023-06-19T07:12:48.207Z,33939.973
2023-06-19T07:13:47.696Z,36116.191
2023-06-19T07:14:48.108Z,36757.551
2023-06-19T07:15:47.688Z,35725.215
2023-06-19T07:16:48.592Z,34274.934
2023-06-19T07:17:48.482Z,31993.588
2023-06-19T07:19:47.445Z,29501.506
2023-06-19T07:20:47.908Z,29692.500
2023-06-19T07:21:48.352Z,30038.859
2023-06-19T07:22:47.750Z,30166.135
2023-06-19T07:23:49.990Z,29756.219
2023-06-19T07:24:48.263Z,29214.371
2023-06-19T07:25:47.728Z,28521.010
2023-06-19T07:26:48.276Z,27873.393
2023-06-19T07:27:47.830Z,27452.562
2023-06-19T07:28:48.220Z,27904.049
2023-06-19T07:29:47.572Z,29055.797
2023-06-19T07:30:49.134Z,30492.592
2023-06-19T07:31:49.192Z,31728.604
2023-06-19T07:32:49.381Z,32968.945
2023-06-19T07:33:49.090Z,34961.234
2023-06-19T07:34:47.544Z,37725.848
2023-06-19T07:35:47.992Z,41828.387
2023-06-19T07:36:47.518Z,49544.262
2023-06-19T07:37:48.201Z,51909.230
2023-06-19T07:38:47.639Z,58946.836
2023-06-19T07:39:48.148Z,97663.766
2023-06-19T07:40:47.784Z,79468.203
2023-06-19T07:41:48.226Z,111191.828
2023-06-19T07:42:51.067Z,52352.371
2023-06-19T07:43:47.630Z,52025.113
2023-06-19T07:44:48.202Z,48547.238
2023-06-19T07:45:48.018Z,70592.234
2023-06-19T07:46:47.918Z,53577.309
2023-06-19T07:47:48.802Z,38701.203
2023-06-19T07:48:48.299Z,35642.715
2023-06-19T07:49:47.767Z,34786.609
2023-06-19T07:51:48.203Z,36263.531
2023-06-19T07:52:47.659Z,37932.730
2023-06-19T07:53:48.097Z,39415.590
2023-06-19T07:54:47.546Z,40515.816
2023-06-19T07:55:48.141Z,41264.711
2023-06-19T07:56:47.638Z,40867.633
2023-06-19T07:57:48.086Z,40063.367
2023-06-19T07:58:47.524Z,39782.012
2023-06-19T07:59:47.991Z,39584.113
2023-06-19T08:00:47.629Z,39185.594
2023-06-19T08:01:48.109Z,38607.953
2023-06-19T08:02:48.467Z,38196.434
2023-06-19T08:03:48.947Z,38272.188
2023-06-19T08:04:47.796Z,39028.785
2023-06-19T08:05:48.269Z,40186.793
2023-06-19T08:06:47.756Z,41282.527
2023-06-19T08:07:48.214Z,43350.406
2023-06-19T08:08:47.671Z,43315.578
2023-06-19T08:09:54.393Z,45039.348
2023-06-19T08:10:48.907Z,47741.207
2023-06-19T08:11:48.325Z,49072.395
2023-06-19T08:12:47.801Z,49783.730
2023-06-19T08:13:48.258Z,51001.441
2023-06-19T08:14:47.794Z,54202.133
2023-06-19T08:15:48.299Z,54142.105
2023-06-19T08:16:48.028Z,55869.730
2023-06-19T08:17:47.811Z,58560.031
2023-06-19T08:18:48.278Z,66829.953
2023-06-19T08:19:47.672Z,79230.508
2023-06-19T08:20:48.221Z,134873.766
2023-06-19T08:21:47.632Z,102383.109
2023-06-19T08:22:48.173Z,90064.094
2023-06-19T08:23:47.803Z,84165.078
2023-06-19T08:24:48.732Z,117090.047
2023-06-19T08:25:48.182Z,122913.305
2023-06-19T08:26:47.639Z,101305.672
2023-06-19T08:27:48.186Z,73642.859
2023-06-19T08:28:48.027Z,62768.020
2023-06-19T08:29:47.540Z,57729.762
2023-06-19T08:30:48.071Z,55830.246
2023-06-19T08:31:47.518Z,54975.906
2023-06-19T08:32:48.343Z,55020.203
2023-06-19T08:33:47.865Z,53905.047
2023-06-19T08:34:48.338Z,52656.359
2023-06-19T08:35:47.813Z,49248.141
2023-06-19T08:36:48.234Z,46723.316
2023-06-19T08:37:47.705Z,44574.863
2023-06-19T08:38:48.164Z,42524.797
2023-06-19T08:39:47.623Z,41224.105
2023-06-19T08:40:48.076Z,39166.172
2023-06-19T08:41:47.578Z,37549.457
2023-06-19T08:42:48.017Z,36730.105
2023-06-19T08:43:47.393Z,36244.270
2023-06-19T08:44:48.840Z,35537.910
2023-06-19T08:45:48.422Z,34931.059
2023-06-19T08:46:48.600Z,34353.422
2023-06-19T08:47:48.760Z,33680.766
2023-06-19T08:48:48.151Z,32950.168
2023-06-19T08:49:47.615Z,32444.434
2023-06-19T08:50:48.039Z,31792.160
2023-06-19T08:52:47.853Z,30693.057
2023-06-19T08:53:48.366Z,30037.254
2023-06-19T08:54:47.803Z,29271.027
2023-06-19T08:55:48.319Z,28421.340
2023-06-19T08:56:48.059Z,27500.551
2023-06-19T08:57:47.619Z,26771.078
2023-06-19T08:58:48.043Z,26145.771
2023-06-19T08:59:47.548Z,25532.340
2023-06-19T09:00:48.832Z,25004.777
2023-06-19T09:01:48.307Z,24544.141
2023-06-19T09:02:54.899Z,24366.629
2023-06-19T09:03:48.765Z,24349.135
2023-06-19T09:04:48.475Z,24509.955
2023-06-19T09:05:52.330Z,24558.105
2023-06-19T09:07:48.522Z,23481.311
2023-06-19T09:08:47.964Z,22442.875
2023-06-19T09:09:48.478Z,21285.670
2023-06-19T09:11:47.488Z,19458.379
2023-06-19T09:12:47.880Z,18939.320
2023-06-19T09:13:48.458Z,18792.143
2023-06-19T09:14:47.936Z,18903.689
2023-06-19T09:15:48.413Z,19108.809
2023-06-19T09:16:47.864Z,19266.260
2023-06-19T09:17:48.499Z,19359.992
2023-06-19T09:18:47.938Z,19571.852
2023-06-19T09:19:48.618Z,19846.949
2023-06-19T09:20:48.186Z,20190.418
2023-06-19T09:21:47.591Z,20525.221
2023-06-19T09:22:48.946Z,20744.625
2023-06-19T09:23:48.440Z,21065.143
2023-06-19T09:24:49.651Z,21572.645
2023-06-19T09:25:48.265Z,22372.898
2023-06-19T09:26:47.768Z,23517.262
2023-06-19T09:27:48.230Z,25128.521
2023-06-19T09:28:47.759Z,26670.445
2023-06-19T09:29:48.228Z,27967.768
2023-06-19T09:30:47.664Z,28803.170
2023-06-19T09:31:48.139Z,29078.266
2023-06-19T09:32:47.887Z,29004.758
2023-06-19T09:33:48.773Z,28968.004
2023-06-19T09:34:50.009Z,29131.553
2023-06-19T09:35:47.810Z,29572.285
2023-06-19T09:36:48.404Z,30346.859
2023-06-19T09:37:47.934Z,30777.641
2023-06-19T09:38:49.068Z,30798.346
2023-06-19T09:39:47.645Z,30474.938
2023-06-19T09:40:48.332Z,30083.479
2023-06-19T09:41:49.081Z,29772.910
2023-06-19T09:42:47.781Z,29794.096
2023-06-19T09:43:48.572Z,30243.818
2023-06-19T09:44:56.450Z,31123.518
2023-06-19T09:48:48.367Z,35841.254
2023-06-19T09:49:47.773Z,36656.273
2023-06-19T09:50:48.156Z,37400.672
2023-06-19T09:51:47.547Z,37984.895
2023-06-19T09:52:48.043Z,38581.633
2023-06-19T09:54:48.263Z,39911.375
2023-06-19T09:55:47.720Z,40484.840
2023-06-19T09:56:48.248Z,40944.672
2023-06-19T09:58:48.167Z,41882.797
2023-06-19T09:59:47.656Z,42876.934
2023-06-19T10:00:48.165Z,44415.484
2023-06-19T10:01:47.990Z,46453.195
2023-06-19T10:02:48.025Z,48578.215
2023-06-19T10:03:48.183Z,50682.367
2023-06-19T10:04:47.697Z,53014.914
2023-06-19T10:05:48.223Z,56596.152
2023-06-19T10:06:47.846Z,63558.160
2023-06-19T10:08:47.946Z,79947.617
2023-06-19T10:09:48.374Z,84331.516
2023-06-19T10:10:47.751Z,115709.750
2023-06-19T10:11:48.264Z,122434.219
2023-06-19T10:12:47.714Z,140036.250
2023-06-19T10:13:48.217Z,133171.500
2023-06-19T10:14:47.655Z,121267.539
2023-06-19T10:15:48.100Z,96594.836
2023-06-19T10:16:47.733Z,115806.531
2023-06-19T10:17:48.554Z,122810.430
2023-06-19T10:18:48.046Z,103648.492
2023-06-19T10:19:47.455Z,115124.242
2023-06-19T10:20:56.195Z,111696.922
2023-06-19T10:21:47.671Z,123913.703
2023-06-19T10:22:48.242Z,107497.602
2023-06-19T10:23:48.218Z,70896.062
2023-06-19T10:24:48.324Z,65960.367
2023-06-19T10:25:47.882Z,127739.539
2023-06-19T10:26:48.422Z,130978.750
2023-06-19T10:27:50.972Z,132568.828
2023-06-19T10:28:47.937Z,136810.047
2023-06-19T10:31:48.117Z,123932.164
2023-06-19T10:32:47.798Z,122918.125
2023-06-19T10:33:48.536Z,112863.922
2023-06-19T10:34:48.589Z,106184.070
2023-06-19T10:35:48.016Z,105564.703
2023-06-19T10:38:47.482Z,110770.844
2023-06-19T10:39:48.008Z,114777.398
2023-06-19T10:40:47.402Z,120848.797
2023-06-19T10:41:47.836Z,125722.703
2023-06-19T10:42:48.348Z,126108.859
2023-06-19T10:43:47.849Z,123094.836
2023-06-19T10:44:48.267Z,122733.711
2023-06-19T10:45:48.265Z,123515.344
2023-06-19T10:46:48.728Z,126879.906
2023-06-19T10:47:48.570Z,135559.578
2023-06-19T10:48:48.087Z,134216.031
2023-06-19T10:49:47.574Z,129450.953
2023-06-19T10:50:48.083Z,140442.469
2023-06-19T10:51:47.579Z,147952.438
2023-06-19T10:52:48.007Z,147379.922
2023-06-19T10:53:47.505Z,140077.016
2023-06-19T10:54:48.040Z,136707.156
2023-06-19T10:55:51.224Z,138139.297
2023-06-19T10:56:47.661Z,136737.500
2023-06-19T10:57:48.125Z,134338.828
2023-06-19T10:58:47.580Z,129808.547
2023-06-19T10:59:48.023Z,130740.414
2023-06-19T11:00:47.484Z,133923.281
2023-06-19T11:01:47.998Z,136649.062
2023-06-19T11:02:48.091Z,136711.328
2023-06-19T11:03:48.268Z,135788.453
2023-06-19T11:04:47.826Z,130554.555
2023-06-19T11:05:48.245Z,124561.961
2023-06-19T11:06:49.243Z,119397.070
2023-06-19T11:07:47.616Z,121218.586
2023-06-19T11:08:48.002Z,129841.289
2023-06-19T11:09:51.300Z,124718.609
2023-06-19T11:10:47.730Z,130133.883
2023-06-19T11:11:48.225Z,135161.391
2023-06-19T11:12:47.717Z,141626.000
2023-06-19T11:13:48.224Z,134568.812
2023-06-19T11:14:47.775Z,134318.281
2023-06-19T11:15:48.402Z,142967.297
2023-06-19T11:16:48.473Z,143276.750
2023-06-19T11:17:48.322Z,142632.344
2023-06-19T11:18:47.775Z,138919.969
2023-06-19T11:19:48.247Z,137800.641
2023-06-19T11:20:47.672Z,138165.297
2023-06-19T11:21:48.223Z,137771.750
2023-06-19T11:22:47.618Z,140213.281
2023-06-19T11:23:48.087Z,141799.344
2023-06-19T11:24:48.055Z,148433.281
2023-06-19T11:25:47.475Z,152155.922
2023-06-19T11:26:47.970Z,149054.266
2023-06-19T11:27:48.451Z,152030.422
2023-06-19T11:28:49.293Z,156579.312
2023-06-19T11:29:47.719Z,159451.609
2023-06-19T11:30:48.861Z,154780.266
2023-06-19T11:31:47.475Z,158087.203
2023-06-19T11:32:48.664Z,162360.516
2023-06-19T11:33:48.112Z,159153.719
2023-06-19T11:34:47.745Z,149975.531
2023-06-19T11:35:48.357Z,150349.016
2023-06-19T11:36:47.804Z,155485.656
2023-06-19T11:37:47.759Z,114244.219
2023-06-19T11:38:48.200Z,40423.531
2023-06-19T11:39:47.661Z,159950.609
2023-06-19T11:40:48.125Z,156352.203
2023-06-19T11:42:48.150Z,157832.812
2023-06-19T11:43:47.616Z,157821.422
2023-06-19T11:44:50.817Z,154730.672
2023-06-19T11:45:48.789Z,160378.656
2023-06-19T11:47:48.402Z,148268.938
2023-06-19T11:49:06.623Z,141357.328
2023-06-19T11:49:48.446Z,97242.617
2023-06-19T11:50:47.892Z,152060.266
2023-06-19T11:51:48.332Z,141806.719
2023-06-19T11:52:47.764Z,55306.695
2023-06-19T11:53:48.376Z,152348.359
2023-06-19T11:54:47.857Z,85806.992
2023-06-19T11:55:51.591Z,55826.715
2023-06-19T11:56:48.123Z,56997.082
2023-06-19T11:57:47.484Z,51854.660
2023-06-19T11:58:47.877Z,139463.594
2023-06-19T11:59:48.422Z,139696.156
2023-06-19T12:00:47.963Z,149235.141
2023-06-19T12:01:48.573Z,156604.828
2023-06-19T12:02:49.248Z,151243.641
2023-06-19T12:03:53.399Z,157924.781
2023-06-19T12:04:49.070Z,163629.906
2023-06-19T12:05:47.757Z,144466.859
2023-06-19T12:06:48.419Z,143503.203
2023-06-19T12:07:47.866Z,42711.457
2023-06-19T12:08:48.310Z,48911.734
2023-06-19T12:09:47.716Z,137482.219
2023-06-19T12:10:48.090Z,60636.578
2023-06-19T12:11:47.508Z,140093.234
2023-06-19T12:12:47.920Z,128089.594
2023-06-19T12:13:48.413Z,120420.742
2023-06-19T12:14:47.854Z,122350.273
2023-06-19T12:15:51.219Z,120113.867
2023-06-19T12:16:47.931Z,120358.633
2023-06-19T12:17:48.613Z,111738.172
2023-06-19T12:18:48.156Z,123172.516
2023-06-19T12:19:47.616Z,67127.039
2023-06-19T12:20:48.056Z,62852.602
2023-06-19T12:22:47.352Z,73231.492
2023-06-19T12:23:47.774Z,95181.477
2023-06-19T12:24:48.722Z,62722.277
2023-06-19T12:26:48.064Z,84898.398
2023-06-19T12:27:47.556Z,122907.211
2023-06-19T12:28:48.114Z,118496.992
2023-06-19T12:29:47.480Z,123850.945